Terminal Aerodrome Forecast
Issued by NWS Twin Cities, MN

Home | Current Version | Previous Version | Text Only | Print | Product List | Glossary Off
Versions: 1 2 3 4 5 6 7 8 9 10 11 12 13 14 15 16 17 18 19 20 21 22

000
FTUS43 KMPX 281433 AAA
TAFSTC
TAF AMD
KSTC 281433Z 2815/2912 06008KT P6SM SCT010 SCT035
     FM281700 36013G20KT P6SM BKN040
     FM290000 33007KT P6SM SCT050=

USA.gov is the U.S. government's official web portal to all federal, state and local government web resources and services.